Tisul, Russia
Current Conditions -  °F | °C
As of 12:00 PM on Saturday 20 Dec 2014 (Local Time) from UNEE Reporting Station
Haze Haze  
Wind Chill: -22°   Ceiling: 20000
Heat Index: -17°   Visibility: 2.1mi
Dew Point: -18°   Wind: 4mph
Humidity: 92%   Direction: 160°SSE
Pressure: 30.48"   Gusts: NA
Location:  55.76°N, 88.31°E
Report Text: UNEE 200500Z 16002MPS 3500 BR BKN200 M17/M18 Q1032 NOSIG RMKQFE751 23821045
Loading
Personal Weather Stations






























Interactive Weather Map New forecast layout! Learn more

10-Day Weather Forecast

Advertisements
Track Severe Weather on mobile